Black Star — 9HA2911 — position and weather

sailwx.info

Track history (hours):
 
Tides and Currents Weather Stations Pressure Air Temp Water Temp Dewpoint Dewpoint Depression Visibility Wind Speed Wind Dir Waves Ship Positions

Black Star

Last reported at 2015-Aug-01 13:33 UTC. Time now 2015-Aug-01 13:55 UTC.
Position N 53°04' E 001°09'.

Length 128 m; draft 7 m.

Type: Ship (hazmat cat B). MMSI: 256714000.

Date/timePositionNaut miles runAvg speedWind from/ knotsBaromVisibWave heightAir tempDewpointWater temp
2015-Aug-01 13:33N 53°04' E 001°09'34 8.5
2015-Aug-01 09:33N 53°29' E 000°31'10 9.7
2015-Aug-01 08:33N 53°33' E 000°16'1312.5
2015-Aug-01 07:33N 53°36' W 000°04'10 9.5
2015-Aug-01 06:33N 53°44' W 000°15'0 0.0
2015-Aug-01 05:32N 53°44' W 000°15'0 0.0
2015-Aug-01 04:26N 53°44' W 000°15'0 0.0
2015-Aug-01 03:32N 53°44' W 000°15'0 0.0
2015-Aug-01 02:32N 53°44' W 000°15'0 0.0
2015-Aug-01 01:17N 53°44' W 000°15'0 0.0
2015-Aug-01 00:32N 53°44' W 000°15'0 0.0
2015-Jul-31 23:32N 53°44' W 000°15'0 0.0
2015-Jul-31 22:32N 53°44' W 000°15'0 0.0
2015-Jul-31 21:23N 53°44' W 000°15'0 0.0
2015-Jul-31 20:26N 53°44' W 000°15'0 0.0
2015-Jul-31 19:26N 53°44' W 000°15'0 0.0
2015-Jul-31 18:32N 53°44' W 000°15'0 0.0
2015-Jul-31 17:26N 53°44' W 000°15'0 0.0
2015-Jul-31 16:23N 53°44' W 000°15'0 0.0
2015-Jul-31 15:32N 53°44' W 000°15'0 0.0
2015-Jul-31 14:33N 53°44' W 000°15'3 2.7
2015-Jul-31 13:33N 53°41' W 000°13'10 9.9
2015-Jul-31 12:33N 53°35' E 000°00'9 9.1
2015-Jul-31 11:33N 53°34' E 000°15'5 4.6
2015-Jul-31 10:33N 53°33' E 000°23'6 6.2
2015-Jul-31 09:32N 53°31' E 000°33'25 7.3
2015-Jul-31 06:08N 53°09' E 000°54'5 7.8
2015-Jul-31 05:30N 53°07' E 001°00'7 7.9
2015-Jul-31 04:33N 53°04' E 001°12'8 7.9
2015-Jul-31 03:33N 53°00' E 001°24'9 8.7
2015-Jul-31 02:33N 52°56' E 001°36'1110.6
2015-Jul-31 01:33N 52°49' E 001°50'1110.5
2015-Jul-31 00:33N 52°43' E 002°04'1010.5
2015-Jul-30 23:33N 52°33' E 002°08'10 9.4
2015-Jul-30 22:33N 52°23' E 002°10'5 5.0
2015-Jul-30 21:31N 52°19' E 002°07'3 3.2
2015-Jul-30 20:33N 52°22' E 002°07'3 2.8
2015-Jul-30 19:32N 52°25' E 002°08'3 2.9
2015-Jul-30 18:33N 52°27' E 002°08'2 2.4
2015-Jul-30 17:33N 52°30' E 002°07'1 1.0
2015-Jul-30 16:33N 52°31' E 002°08'0 0.3
2015-Jul-30 15:33N 52°31' E 002°08'1 0.9
2015-Jul-30 14:33N 52°30' E 002°08'1 1.2
2015-Jul-30 13:33N 52°29' E 002°08'1 1.0
2015-Jul-30 12:33N 52°28' E 002°09'1 0.6
2015-Jul-30 11:28N 52°27' E 002°09'1 0.8
2015-Jul-30 10:10N 52°28' E 002°10'1 1.5
2015-Jul-30 09:33N 52°29' E 002°10'62 3.6
2015-Jul-29 16:20N 52°05' E 003°44'8 9.9
2015-Jul-29 15:33N 52°02' E 003°56'1110.8
2015-Jul-29 14:33N 51°57' E 004°11'6 5.9
2015-Jul-29 13:34N 51°53' E 004°18'0 0.0
2015-Jul-29 12:32N 51°53' E 004°18'0 0.0
2015-Jul-29 11:29N 51°53' E 004°18'0 0.0
2015-Jul-29 10:32N 51°53' E 004°18'0 0.0
2015-Jul-29 09:32N 51°53' E 004°18'0 0.0
2015-Jul-29 08:32N 51°53' E 004°18'0 0.0
2015-Jul-29 07:32N 51°53' E 004°18'0 0.0
2015-Jul-29 06:32N 51°53' E 004°18'0 0.0
2015-Jul-29 05:32N 51°53' E 004°18'0 0.0
2015-Jul-29 04:32N 51°53' E 004°18'0 0.0
2015-Jul-29 03:32N 51°53' E 004°18'0 0.0
2015-Jul-29 02:32N 51°53' E 004°18'0 0.0
2015-Jul-29 01:32N 51°53' E 004°18'0 0.0
2015-Jul-29 00:32N 51°53' E 004°18'0 0.0
2015-Jul-28 23:32N 51°53' E 004°18'0 0.0
2015-Jul-28 22:32N 51°53' E 004°18'0 0.0
2015-Jul-28 21:32N 51°53' E 004°18'0 0.5
2015-Jul-28 20:33N 51°53' E 004°18'0 0.4
2015-Jul-28 19:29N 51°53' E 004°17'0 0.0
2015-Jul-28 18:29N 51°53' E 004°17'0 0.0
2015-Jul-28 17:32N 51°53' E 004°17'0 0.0
2015-Jul-28 16:32N 51°53' E 004°17'0 0.0
2015-Jul-28 15:32N 51°53' E 004°17'0 0.0
2015-Jul-28 14:32N 51°53' E 004°17'0 0.0
2015-Jul-28 13:26N 51°53' E 004°17'0 0.0
2015-Jul-28 12:32N 51°53' E 004°17'0 0.0
2015-Jul-28 11:32N 51°53' E 004°17'0 0.0
2015-Jul-28 10:32N 51°53' E 004°17'0 0.0
2015-Jul-28 09:32N 51°53' E 004°17'0 0.0
2015-Jul-28 08:32N 51°53' E 004°17'0 0.0
2015-Jul-28 07:32N 51°53' E 004°17'0 0.0
2015-Jul-28 06:32N 51°53' E 004°17'0 0.0
2015-Jul-28 05:32N 51°53' E 004°17'0 0.0
2015-Jul-28 04:32N 51°53' E 004°17'0 0.0
2015-Jul-28 03:32N 51°53' E 004°17'0 0.0
2015-Jul-28 02:32N 51°53' E 004°17'0 0.0
2015-Jul-28 01:32N 51°53' E 004°17'0 0.0
2015-Jul-28 00:32N 51°53' E 004°17'0 0.0
2015-Jul-27 23:29N 51°53' E 004°17'0 0.0
2015-Jul-27 22:32N 51°53' E 004°17'0 0.0
2015-Jul-27 21:32N 51°53' E 004°17'0 0.0
2015-Jul-27 20:26N 51°53' E 004°17'1 0.9
2015-Jul-27 19:33N 51°53' E 004°18'7 7.0
2015-Jul-27 18:33N 51°58' E 004°09'6 6.2
2015-Jul-27 17:33N 51°60' E 003°60'66 3.6
2015-Jul-26 23:05N 52°04' E 002°13'6 9.8
2015-Jul-26 22:32N 52°03' E 002°05'9 9.4
2015-Jul-26 21:33N 52°03' E 001°50'10 9.7
2015-Jul-26 20:32N 51°59' E 001°35'1010.5
2015-Jul-26 19:34N 51°55' E 001°20'4 3.4
2015-Jul-26 18:31N 51°57' E 001°14'0 0.0
2015-Jul-26 17:25N 51°57' E 001°14'0 0.0
2015-Jul-26 14:25N 51°57' E 001°14'0 0.0
2015-Jul-26 13:25N 51°57' E 001°14'0 0.0
2015-Jul-26 12:25N 51°57' E 001°14'0 0.0
2015-Jul-26 11:19N 51°57' E 001°14'0 0.0
2015-Jul-26 10:31N 51°57' E 001°14'0 0.0
2015-Jul-26 09:31N 51°57' E 001°14'0 0.0
2015-Jul-26 08:19N 51°57' E 001°14'0 0.0
2015-Jul-26 07:31N 51°57' E 001°14'0 0.0
2015-Jul-26 06:31N 51°57' E 001°14'0 0.0
2015-Jul-26 05:31N 51°57' E 001°14'0 0.0
2015-Jul-26 04:25N 51°57' E 001°14'0 0.0
2015-Jul-26 03:25N 51°57' E 001°14'0 0.0
2015-Jul-26 01:13N 51°57' E 001°14'0 0.0
2015-Jul-26 00:25N 51°57' E 001°14'0 0.0
2015-Jul-25 23:25N 51°57' E 001°14'0 0.0
2015-Jul-25 22:22N 51°57' E 001°14'0 0.0
2015-Jul-25 21:33N 51°57' E 001°14'5 4.7
2015-Jul-25 20:33N 51°56' E 001°22'7 7.3
2015-Jul-25 19:33N 51°58' E 001°33'0 0.1
2015-Jul-25 17:24N 51°58' E 001°33'0 0.0
2015-Jul-25 16:30N 51°58' E 001°33'0 0.0
2015-Jul-25 15:30N 51°58' E 001°33'0 0.0
2015-Jul-25 14:18N 51°58' E 001°33'0 0.0
2015-Jul-25 13:30N 51°58' E 001°33'0 0.0
2015-Jul-25 12:30N 51°58' E 001°33'0 0.0
2015-Jul-25 11:30N 51°58' E 001°33'0 0.0
2015-Jul-25 10:30N 51°58' E 001°33'0 0.0
2015-Jul-25 09:30N 51°58' E 001°33'0 0.0
2015-Jul-25 08:33N 51°58' E 001°33'2 2.0
2015-Jul-25 07:33N 51°59' E 001°35'9 8.6
2015-Jul-25 06:27N 52°03' E 001°50'9 9.7
2015-Jul-25 05:32N 52°03' E 002°04'27 2.5
2015-Jul-24 18:33N 52°18' E 002°41'10 9.8
2015-Jul-24 17:30N 52°08' E 002°42'7 7.6
2015-Jul-24 16:32N 52°02' E 002°48'1110.8
2015-Jul-24 15:32N 52°04' E 003°06'1010.2
2015-Jul-24 14:33N 52°04' E 003°22'1111.5
2015-Jul-24 13:33N 52°04' E 003°41'1110.7
2015-Jul-24 12:34N 52°01' E 003°58'1313.2
2015-Jul-24 11:33N 51°54' E 004°16'1 1.2
2015-Jul-24 10:30N 51°53' E 004°17'0 0.0
2015-Jul-24 09:30N 51°53' E 004°17'0 0.0
2015-Jul-24 08:30N 51°53' E 004°17'0 0.0
2015-Jul-24 07:30N 51°53' E 004°17'2 2.0
2015-Jul-24 06:30N 51°53' E 004°14'2 1.8
2015-Jul-24 05:24N 51°53' E 004°17'0 0.0
2015-Jul-24 04:30N 51°53' E 004°17'0 0.0
2015-Jul-24 03:30N 51°53' E 004°17'0 0.0
2015-Jul-24 02:30N 51°53' E 004°17'0 0.0
2015-Jul-24 01:30N 51°53' E 004°17'0 0.0
2015-Jul-24 00:30N 51°53' E 004°17'0 0.0
2015-Jul-23 23:19N 51°53' E 004°17'0 0.0
2015-Jul-23 22:30N 51°53' E 004°17'0 0.0
2015-Jul-23 21:30N 51°53' E 004°17'0 0.0
2015-Jul-23 20:18N 51°53' E 004°17'0 0.0
2015-Jul-23 19:33N 51°53' E 004°17'0 0.0
2015-Jul-23 18:30N 51°53' E 004°17'0 0.0
2015-Jul-23 17:33N 51°53' E 004°17'0 0.0
2015-Jul-23 16:27N 51°53' E 004°17'0 0.0
2015-Jul-23 15:27N 51°53' E 004°17'0 0.0
2015-Jul-23 14:27N 51°53' E 004°17'0 0.0
2015-Jul-23 13:30N 51°53' E 004°17'0 0.0
2015-Jul-23 12:33N 51°53' E 004°17'0 0.0
2015-Jul-23 11:33N 51°53' E 004°17'0 0.0
2015-Jul-23 10:30N 51°53' E 004°17'0 0.0
2015-Jul-23 09:33N 51°53' E 004°17'0 0.0
2015-Jul-23 08:33N 51°53' E 004°17'0 0.0
2015-Jul-23 07:33N 51°53' E 004°17'0 0.0
2015-Jul-23 06:33N 51°53' E 004°17'0 0.0
2015-Jul-23 05:33N 51°53' E 004°17'0 0.3
2015-Jul-23 04:33N 51°53' E 004°18'8 8.2
2015-Jul-23 03:33N 51°58' E 004°07'3 3.0
2015-Jul-23 02:33N 51°56' E 004°11'0 0.0
2015-Jul-23 01:28N 51°56' E 004°11'0 0.0
2015-Jul-23 00:28N 51°56' E 004°11'0 0.0
2015-Jul-22 23:28N 51°56' E 004°11'0 0.0
2015-Jul-22 22:28N 51°56' E 004°11'0 0.0
2015-Jul-22 21:28N 51°56' E 004°11'0 0.0
2015-Jul-22 20:28N 51°56' E 004°11'0 0.0
2015-Jul-22 19:28N 51°56' E 004°11'0 0.0
2015-Jul-22 18:22N 51°56' E 004°11'0 0.0
2015-Jul-22 17:16N 51°56' E 004°11'0 0.0
2015-Jul-22 16:28N 51°56' E 004°11'0 0.0
2015-Jul-22 15:28N 51°56' E 004°11'0 0.0
2015-Jul-22 14:28N 51°56' E 004°11'  
Track history (hours):
 
Tides and Currents Weather Stations Pressure Air Temp Water Temp Dewpoint Dewpoint Depression Visibility Wind Speed Wind Dir Waves Ship Positions

Black Star

Last reported at 2015-Aug-01 13:33 UTC. Time now 2015-Aug-01 13:55 UTC.
Position N 53°04' E 001°09'.

Length 128 m; draft 7 m.

Type: Ship (hazmat cat B). MMSI: 256714000.

Date/timePositionNaut miles runAvg speedWind from/ knotsBaromVisibWave heightAir tempDewpointWater temp
2015-Aug-01 13:33N 53°04' E 001°09'34 8.5
2015-Aug-01 09:33N 53°29' E 000°31'10 9.7
2015-Aug-01 08:33N 53°33' E 000°16'1312.5
2015-Aug-01 07:33N 53°36' W 000°04'10 9.5
2015-Aug-01 06:33N 53°44' W 000°15'0 0.0
2015-Aug-01 05:32N 53°44' W 000°15'0 0.0
2015-Aug-01 04:26N 53°44' W 000°15'0 0.0
2015-Aug-01 03:32N 53°44' W 000°15'0 0.0
2015-Aug-01 02:32N 53°44' W 000°15'0 0.0
2015-Aug-01 01:17N 53°44' W 000°15'0 0.0
2015-Aug-01 00:32N 53°44' W 000°15'0 0.0
2015-Jul-31 23:32N 53°44' W 000°15'0 0.0
2015-Jul-31 22:32N 53°44' W 000°15'0 0.0
2015-Jul-31 21:23N 53°44' W 000°15'0 0.0
2015-Jul-31 20:26N 53°44' W 000°15'0 0.0
2015-Jul-31 19:26N 53°44' W 000°15'0 0.0
2015-Jul-31 18:32N 53°44' W 000°15'0 0.0
2015-Jul-31 17:26N 53°44' W 000°15'0 0.0
2015-Jul-31 16:23N 53°44' W 000°15'0 0.0
2015-Jul-31 15:32N 53°44' W 000°15'0 0.0
2015-Jul-31 14:33N 53°44' W 000°15'3 2.7
2015-Jul-31 13:33N 53°41' W 000°13'10 9.9
2015-Jul-31 12:33N 53°35' E 000°00'9 9.1
2015-Jul-31 11:33N 53°34' E 000°15'5 4.6
2015-Jul-31 10:33N 53°33' E 000°23'6 6.2
2015-Jul-31 09:32N 53°31' E 000°33'25 7.3
2015-Jul-31 06:08N 53°09' E 000°54'5 7.8
2015-Jul-31 05:30N 53°07' E 001°00'7 7.9
2015-Jul-31 04:33N 53°04' E 001°12'8 7.9
2015-Jul-31 03:33N 53°00' E 001°24'9 8.7
2015-Jul-31 02:33N 52°56' E 001°36'1110.6
2015-Jul-31 01:33N 52°49' E 001°50'1110.5
2015-Jul-31 00:33N 52°43' E 002°04'1010.5
2015-Jul-30 23:33N 52°33' E 002°08'10 9.4
2015-Jul-30 22:33N 52°23' E 002°10'5 5.0
2015-Jul-30 21:31N 52°19' E 002°07'3 3.2
2015-Jul-30 20:33N 52°22' E 002°07'3 2.8
2015-Jul-30 19:32N 52°25' E 002°08'3 2.9
2015-Jul-30 18:33N 52°27' E 002°08'2 2.4
2015-Jul-30 17:33N 52°30' E 002°07'1 1.0
2015-Jul-30 16:33N 52°31' E 002°08'0 0.3
2015-Jul-30 15:33N 52°31' E 002°08'1 0.9
2015-Jul-30 14:33N 52°30' E 002°08'1 1.2
2015-Jul-30 13:33N 52°29' E 002°08'1 1.0
2015-Jul-30 12:33N 52°28' E 002°09'1 0.6
2015-Jul-30 11:28N 52°27' E 002°09'1 0.8
2015-Jul-30 10:10N 52°28' E 002°10'1 1.5
2015-Jul-30 09:33N 52°29' E 002°10'62 3.6
2015-Jul-29 16:20N 52°05' E 003°44'8 9.9
2015-Jul-29 15:33N 52°02' E 003°56'1110.8
2015-Jul-29 14:33N 51°57' E 004°11'6 5.9
2015-Jul-29 13:34N 51°53' E 004°18'0 0.0
2015-Jul-29 12:32N 51°53' E 004°18'0 0.0
2015-Jul-29 11:29N 51°53' E 004°18'0 0.0
2015-Jul-29 10:32N 51°53' E 004°18'0 0.0
2015-Jul-29 09:32N 51°53' E 004°18'0 0.0
2015-Jul-29 08:32N 51°53' E 004°18'0 0.0
2015-Jul-29 07:32N 51°53' E 004°18'0 0.0
2015-Jul-29 06:32N 51°53' E 004°18'0 0.0
2015-Jul-29 05:32N 51°53' E 004°18'0 0.0
2015-Jul-29 04:32N 51°53' E 004°18'0 0.0
2015-Jul-29 03:32N 51°53' E 004°18'0 0.0
2015-Jul-29 02:32N 51°53' E 004°18'0 0.0
2015-Jul-29 01:32N 51°53' E 004°18'0 0.0
2015-Jul-29 00:32N 51°53' E 004°18'0 0.0
2015-Jul-28 23:32N 51°53' E 004°18'0 0.0
2015-Jul-28 22:32N 51°53' E 004°18'0 0.0
2015-Jul-28 21:32N 51°53' E 004°18'0 0.5
2015-Jul-28 20:33N 51°53' E 004°18'0 0.4
2015-Jul-28 19:29N 51°53' E 004°17'0 0.0
2015-Jul-28 18:29N 51°53' E 004°17'0 0.0
2015-Jul-28 17:32N 51°53' E 004°17'0 0.0
2015-Jul-28 16:32N 51°53' E 004°17'0 0.0
2015-Jul-28 15:32N 51°53' E 004°17'0 0.0
2015-Jul-28 14:32N 51°53' E 004°17'0 0.0
2015-Jul-28 13:26N 51°53' E 004°17'0 0.0
2015-Jul-28 12:32N 51°53' E 004°17'0 0.0
2015-Jul-28 11:32N 51°53' E 004°17'0 0.0
2015-Jul-28 10:32N 51°53' E 004°17'0 0.0
2015-Jul-28 09:32N 51°53' E 004°17'0 0.0
2015-Jul-28 08:32N 51°53' E 004°17'0 0.0
2015-Jul-28 07:32N 51°53' E 004°17'0 0.0
2015-Jul-28 06:32N 51°53' E 004°17'0 0.0
2015-Jul-28 05:32N 51°53' E 004°17'0 0.0
2015-Jul-28 04:32N 51°53' E 004°17'0 0.0
2015-Jul-28 03:32N 51°53' E 004°17'0 0.0
2015-Jul-28 02:32N 51°53' E 004°17'0 0.0
2015-Jul-28 01:32N 51°53' E 004°17'0 0.0
2015-Jul-28 00:32N 51°53' E 004°17'0 0.0
2015-Jul-27 23:29N 51°53' E 004°17'0 0.0
2015-Jul-27 22:32N 51°53' E 004°17'0 0.0
2015-Jul-27 21:32N 51°53' E 004°17'0 0.0
2015-Jul-27 20:26N 51°53' E 004°17'1 0.9
2015-Jul-27 19:33N 51°53' E 004°18'7 7.0
2015-Jul-27 18:33N 51°58' E 004°09'6 6.2
2015-Jul-27 17:33N 51°60' E 003°60'66 3.6
2015-Jul-26 23:05N 52°04' E 002°13'6 9.8
2015-Jul-26 22:32N 52°03' E 002°05'9 9.4
2015-Jul-26 21:33N 52°03' E 001°50'10 9.7
2015-Jul-26 20:32N 51°59' E 001°35'1010.5
2015-Jul-26 19:34N 51°55' E 001°20'4 3.4
2015-Jul-26 18:31N 51°57' E 001°14'0 0.0
2015-Jul-26 17:25N 51°57' E 001°14'0 0.0
2015-Jul-26 14:25N 51°57' E 001°14'0 0.0
2015-Jul-26 13:25N 51°57' E 001°14'0 0.0
2015-Jul-26 12:25N 51°57' E 001°14'0 0.0
2015-Jul-26 11:19N 51°57' E 001°14'0 0.0
2015-Jul-26 10:31N 51°57' E 001°14'0 0.0
2015-Jul-26 09:31N 51°57' E 001°14'0 0.0
2015-Jul-26 08:19N 51°57' E 001°14'0 0.0
2015-Jul-26 07:31N 51°57' E 001°14'0 0.0
2015-Jul-26 06:31N 51°57' E 001°14'0 0.0
2015-Jul-26 05:31N 51°57' E 001°14'0 0.0
2015-Jul-26 04:25N 51°57' E 001°14'0 0.0
2015-Jul-26 03:25N 51°57' E 001°14'0 0.0
2015-Jul-26 01:13N 51°57' E 001°14'0 0.0
2015-Jul-26 00:25N 51°57' E 001°14'0 0.0
2015-Jul-25 23:25N 51°57' E 001°14'0 0.0
2015-Jul-25 22:22N 51°57' E 001°14'0 0.0
2015-Jul-25 21:33N 51°57' E 001°14'5 4.7
2015-Jul-25 20:33N 51°56' E 001°22'7 7.3
2015-Jul-25 19:33N 51°58' E 001°33'0 0.1
2015-Jul-25 17:24N 51°58' E 001°33'0 0.0
2015-Jul-25 16:30N 51°58' E 001°33'0 0.0
2015-Jul-25 15:30N 51°58' E 001°33'0 0.0
2015-Jul-25 14:18N 51°58' E 001°33'0 0.0
2015-Jul-25 13:30N 51°58' E 001°33'0 0.0
2015-Jul-25 12:30N 51°58' E 001°33'0 0.0
2015-Jul-25 11:30N 51°58' E 001°33'0 0.0
2015-Jul-25 10:30N 51°58' E 001°33'0 0.0
2015-Jul-25 09:30N 51°58' E 001°33'0 0.0
2015-Jul-25 08:33N 51°58' E 001°33'2 2.0
2015-Jul-25 07:33N 51°59' E 001°35'9 8.6
2015-Jul-25 06:27N 52°03' E 001°50'9 9.7
2015-Jul-25 05:32N 52°03' E 002°04'27 2.5
2015-Jul-24 18:33N 52°18' E 002°41'10 9.8
2015-Jul-24 17:30N 52°08' E 002°42'7 7.6
2015-Jul-24 16:32N 52°02' E 002°48'1110.8
2015-Jul-24 15:32N 52°04' E 003°06'1010.2
2015-Jul-24 14:33N 52°04' E 003°22'1111.5
2015-Jul-24 13:33N 52°04' E 003°41'1110.7
2015-Jul-24 12:34N 52°01' E 003°58'1313.2
2015-Jul-24 11:33N 51°54' E 004°16'1 1.2
2015-Jul-24 10:30N 51°53' E 004°17'0 0.0
2015-Jul-24 09:30N 51°53' E 004°17'0 0.0
2015-Jul-24 08:30N 51°53' E 004°17'0 0.0
2015-Jul-24 07:30N 51°53' E 004°17'2 2.0
2015-Jul-24 06:30N 51°53' E 004°14'2 1.8
2015-Jul-24 05:24N 51°53' E 004°17'0 0.0
2015-Jul-24 04:30N 51°53' E 004°17'0 0.0
2015-Jul-24 03:30N 51°53' E 004°17'0 0.0
2015-Jul-24 02:30N 51°53' E 004°17'0 0.0
2015-Jul-24 01:30N 51°53' E 004°17'0 0.0
2015-Jul-24 00:30N 51°53' E 004°17'0 0.0
2015-Jul-23 23:19N 51°53' E 004°17'0 0.0
2015-Jul-23 22:30N 51°53' E 004°17'0 0.0
2015-Jul-23 21:30N 51°53' E 004°17'0 0.0
2015-Jul-23 20:18N 51°53' E 004°17'0 0.0
2015-Jul-23 19:33N 51°53' E 004°17'0 0.0
2015-Jul-23 18:30N 51°53' E 004°17'0 0.0
2015-Jul-23 17:33N 51°53' E 004°17'0 0.0
2015-Jul-23 16:27N 51°53' E 004°17'0 0.0
2015-Jul-23 15:27N 51°53' E 004°17'0 0.0
2015-Jul-23 14:27N 51°53' E 004°17'0 0.0
2015-Jul-23 13:30N 51°53' E 004°17'0 0.0
2015-Jul-23 12:33N 51°53' E 004°17'0 0.0
2015-Jul-23 11:33N 51°53' E 004°17'0 0.0
2015-Jul-23 10:30N 51°53' E 004°17'0 0.0
2015-Jul-23 09:33N 51°53' E 004°17'0 0.0
2015-Jul-23 08:33N 51°53' E 004°17'0 0.0
2015-Jul-23 07:33N 51°53' E 004°17'0 0.0
2015-Jul-23 06:33N 51°53' E 004°17'0 0.0
2015-Jul-23 05:33N 51°53' E 004°17'0 0.3
2015-Jul-23 04:33N 51°53' E 004°18'8 8.2
2015-Jul-23 03:33N 51°58' E 004°07'3 3.0
2015-Jul-23 02:33N 51°56' E 004°11'0 0.0
2015-Jul-23 01:28N 51°56' E 004°11'0 0.0
2015-Jul-23 00:28N 51°56' E 004°11'0 0.0
2015-Jul-22 23:28N 51°56' E 004°11'0 0.0
2015-Jul-22 22:28N 51°56' E 004°11'0 0.0
2015-Jul-22 21:28N 51°56' E 004°11'0 0.0
2015-Jul-22 20:28N 51°56' E 004°11'0 0.0
2015-Jul-22 19:28N 51°56' E 004°11'0 0.0
2015-Jul-22 18:22N 51°56' E 004°11'0 0.0
2015-Jul-22 17:16N 51°56' E 004°11'0 0.0
2015-Jul-22 16:28N 51°56' E 004°11'0 0.0
2015-Jul-22 15:28N 51°56' E 004°11'0 0.0
2015-Jul-22 14:28N 51°56' E 004°11'  

Dump ship's entire track history